Time;durP1;ratioP1;P1;durP2;ratioP2;P2;SDS_P1;SDS_P2;PMS_P1;PMS_P2;Temp;Humidity;BMP_temperature;BMP_pressure;BME280_temperature;BME280_humidity;BME280_pressure;Samples;Min_cycle;Max_cycle;Signal;HPM_P1;HPM_P2
2022/04/19 00:00:56;;;;;;;4.27;2.23;;;;;;;4.74;85.79;95939.72;4997804;28;20126;-79
2022/04/19 00:03:23;;;;;;;5.97;2.53;;;;;;;4.74;86.05;95937.13;5005235;28;20559;-79
2022/04/19 00:05:48;;;;;;;5.03;2.23;;;;;;;4.68;86.02;95922.03;5011798;28;20463;-79
2022/04/19 00:08:15;;;;;;;4.90;2.03;;;;;;;4.67;86.33;95920.38;5020745;28;20455;-79
2022/04/19 00:10:42;;;;;;;5.57;2.47;;;;;;;4.64;86.61;95925.84;5011165;28;20039;-78
2022/04/19 00:13:10;;;;;;;7.20;2.50;;;;;;;4.78;86.11;95925.47;5007219;28;20467;-79
2022/04/19 00:15:38;;;;;;;5.53;2.43;;;;;;;4.70;87.29;95920.13;5012715;28;20472;-78
2022/04/19 00:18:06;;;;;;;4.30;2.10;;;;;;;4.78;86.50;95919.47;5005407;28;20507;-78
2022/04/19 00:20:33;;;;;;;6.67;2.57;;;;;;;4.70;86.35;95917.50;5007555;28;20468;-79
2022/04/19 00:23:05;;;;;;;4.43;2.27;;;;;;;4.48;89.08;95916.72;5023749;28;22196;-79
2022/04/19 00:25:31;;;;;;;5.73;2.60;;;;;;;4.41;89.23;95910.38;5006040;28;20539;-79
2022/04/19 00:27:57;;;;;;;6.50;2.10;;;;;;;4.41;89.27;95915.59;5008935;28;20502;-80
2022/04/19 00:30:22;;;;;;;5.67;2.10;;;;;;;4.41;89.93;95912.16;5035118;28;20468;-80
2022/04/19 00:32:48;;;;;;;5.70;2.43;;;;;;;4.42;89.98;95912.00;4997095;28;20136;-80
2022/04/19 00:35:14;;;;;;;4.43;1.97;;;;;;;4.40;90.46;95908.75;5027852;28;20092;-81
2022/04/19 00:37:40;;;;;;;3.77;1.80;;;;;;;4.45;89.88;95903.94;4997615;28;20036;-80
2022/04/19 00:40:08;;;;;;;4.70;2.00;;;;;;;4.54;88.72;95906.75;4996528;28;20747;-80
2022/04/19 00:42:34;;;;;;;5.07;1.90;;;;;;;4.46;88.89;95903.00;4999312;28;20036;-81
2022/04/19 00:45:04;;;;;;;4.10;2.07;;;;;;;4.35;89.54;95907.47;5020754;28;20068;-81
2022/04/19 00:47:32;;;;;;;5.27;2.47;;;;;;;4.27;89.84;95907.28;5033237;28;20688;-80
2022/04/19 00:50:03;;;;;;;5.40;2.40;;;;;;;4.17;90.58;95902.84;5038132;28;20505;-79
2022/04/19 00:52:36;;;;;;;6.00;2.57;;;;;;;4.05;92.13;95905.63;5024982;28;20025;-80
2022/04/19 00:55:04;;;;;;;6.00;2.80;;;;;;;4.00;92.76;95899.03;5007482;28;20581;-78
2022/04/19 00:57:37;;;;;;;5.27;2.77;;;;;;;4.01;93.33;95892.88;5025088;28;20463;-78
2022/04/19 01:00:05;;;;;;;6.00;2.70;;;;;;;3.99;93.66;95892.19;5020422;28;20552;-78
2022/04/19 01:02:32;;;;;;;6.63;2.83;;;;;;;3.82;96.03;95889.31;5020437;28;20476;-78
2022/04/19 01:05:00;;;;;;;5.97;2.43;;;;;;;3.71;96.54;95890.22;5005929;28;21070;-78
2022/04/19 01:07:26;;;;;;;6.43;2.73;;;;;;;3.75;95.43;95886.41;5005865;28;20472;-78
2022/04/19 01:09:55;;;;;;;4.43;2.30;;;;;;;3.68;96.71;95882.66;5020745;28;20037;-78
2022/04/19 01:15:11;;;;;;;5.67;2.80;;;;;;;3.59;98.20;95883.41;5020516;28;21119;-78
2022/04/19 01:18:08;;;;;;;4.60;2.50;;;;;;;3.56;98.81;95873.28;5025499;28;20917;-80
2022/04/19 01:20:38;;;;;;;6.00;2.37;;;;;;;3.57;98.34;95874.91;5006368;28;20501;-79
2022/04/19 01:23:05;;;;;;;6.07;2.60;;;;;;;3.59;98.68;95871.25;5004615;28;20555;-78
2022/04/19 01:25:34;;;;;;;4.67;2.17;;;;;;;3.51;99.13;95863.22;5011054;28;20471;-79
2022/04/19 01:27:59;;;;;;;6.10;2.70;;;;;;;3.51;99.22;95861.44;5006036;28;20459;-78
2022/04/19 01:30:26;;;;;;;5.13;2.40;;;;;;;3.46;99.37;95855.00;5016799;28;20472;-78
2022/04/19 01:32:53;;;;;;;5.57;2.33;;;;;;;3.62;97.64;95862.34;5014109;28;20091;-79
2022/04/19 01:35:21;;;;;;;7.33;2.60;;;;;;;3.52;97.60;95857.91;5015424;28;22799;-79
2022/04/19 01:37:56;;;;;;;4.97;2.13;;;;;;;3.47;97.23;95852.25;5017003;28;20132;-79
2022/04/19 01:40:39;;;;;;;6.60;2.70;;;;;;;3.50;97.41;95851.19;5002931;28;20468;-79
2022/04/19 01:43:09;;;;;;;4.40;2.10;;;;;;;3.64;95.89;95852.66;5015418;28;20775;-79
2022/04/19 01:45:48;;;;;;;4.20;1.90;;;;;;;3.61;96.20;95845.09;5016749;28;20479;-79
2022/04/19 01:48:20;;;;;;;3.87;2.10;;;;;;;3.68;95.72;95841.06;5017930;28;20560;-79
2022/04/19 01:50:46;;;;;;;5.93;2.53;;;;;;;3.70;94.56;95844.34;5022151;28;20471;-78
2022/04/19 01:53:12;;;;;;;5.50;2.67;;;;;;;3.47;97.52;95839.25;5000899;28;20152;-79
2022/04/19 01:55:38;;;;;;;5.33;2.23;;;;;;;3.56;96.61;95844.69;5000684;28;20752;-79
2022/04/19 01:58:11;;;;;;;6.00;1.92;;;;;;;3.46;97.83;95848.03;5014349;28;21019;-79
2022/04/19 02:00:41;;;;;;;5.97;2.53;;;;;;;3.42;98.22;95850.97;5021918;28;20036;-79
2022/04/19 02:03:11;;;;;;;4.50;2.40;;;;;;;3.33;99.96;95841.34;5025196;28;20483;-79
2022/04/19 02:05:37;;;;;;;5.43;2.63;;;;;;;3.27;99.22;95840.06;5007565;28;20467;-79
2022/04/19 02:08:04;;;;;;;6.00;2.80;;;;;;;3.12;100.00;95833.47;5025127;28;20029;-79
2022/04/19 02:10:32;;;;;;;5.17;2.57;;;;;;;3.15;100.00;95833.25;5016424;28;20463;-79
2022/04/19 02:12:59;;;;;;;6.83;2.83;;;;;;;3.05;100.00;95838.34;5022636;28;20467;-80
2022/04/19 02:15:38;;;;;;;4.53;2.40;;;;;;;3.11;100.00;95835.25;5025319;28;20825;-79
2022/04/19 02:18:17;;;;;;;4.97;2.40;;;;;;;2.94;100.00;95831.41;5020453;28;20519;-79
2022/04/19 02:20:45;;;;;;;7.73;2.80;;;;;;;2.90;100.00;95826.59;5003596;28;20922;-79
2022/04/19 02:23:13;;;;;;;7.07;2.80;;;;;;;2.96;100.00;95828.72;5020800;28;20984;-79
2022/04/19 02:25:39;;;;;;;6.33;2.90;;;;;;;2.91;100.00;95828.25;5016537;28;20450;-79
2022/04/19 02:28:10;;;;;;;5.70;2.70;;;;;;;2.78;100.00;95831.84;5016187;28;20460;-79
2022/04/19 02:30:41;;;;;;;5.60;3.08;;;;;;;2.79;100.00;95833.47;5001405;28;20509;-79
2022/04/19 02:33:12;;;;;;;5.93;2.93;;;;;;;2.84;100.00;95825.31;5020548;28;20049;-78
2022/04/19 02:35:39;;;;;;;7.77;3.20;;;;;;;2.83;100.00;95824.47;5018032;28;20472;-78
2022/04/19 02:38:06;;;;;;;5.97;2.83;;;;;;;2.97;100.00;95830.34;5015844;28;20037;-79
2022/04/19 02:40:42;;;;;;;5.73;3.00;;;;;;;2.93;100.00;95829.78;5003996;28;20543;-79
2022/04/19 02:43:09;;;;;;;5.67;2.93;;;;;;;2.98;100.00;95827.63;5019290;28;20484;-79
2022/04/19 02:45:35;;;;;;;6.30;2.87;;;;;;;2.95;100.00;95825.28;5016895;28;20501;-78
2022/04/19 02:48:04;;;;;;;6.50;3.10;;;;;;;2.94;100.00;95828.81;5004493;28;20554;-79
2022/04/19 02:50:52;;;;;;;4.57;2.73;;;;;;;2.88;100.00;95820.69;5000388;28;20463;-79
2022/04/19 02:53:18;;;;;;;7.03;3.00;;;;;;;2.87;100.00;95814.69;5015419;28;20478;-78
2022/04/19 02:55:43;;;;;;;6.43;2.90;;;;;;;2.89;100.00;95820.59;5001018;28;20820;-79
2022/04/19 02:58:09;;;;;;;5.63;2.80;;;;;;;2.86;100.00;95833.00;5003244;28;20033;-79
2022/04/19 03:00:37;;;;;;;5.97;3.13;;;;;;;2.99;100.00;95826.69;5002793;28;20041;-79
2022/04/19 03:03:04;;;;;;;4.40;2.30;;;;;;;2.96;100.00;95821.75;4998323;28;20566;-79
2022/04/19 03:05:33;;;;;;;6.80;3.60;;;;;;;2.92;100.00;95822.09;5032410;28;21203;-79
2022/04/19 03:07:59;;;;;;;6.10;2.50;;;;;;;2.82;100.00;95832.41;5017231;28;20467;-80
2022/04/19 03:10:25;;;;;;;4.93;2.27;;;;;;;2.92;100.00;95825.53;5016570;28;20526;-79
2022/04/19 03:12:51;;;;;;;5.33;3.03;;;;;;;2.98;100.00;95824.19;4999055;28;20479;-79
2022/04/19 03:15:20;;;;;;;4.60;2.43;;;;;;;2.89;100.00;95824.97;5001181;28;20462;-79
2022/04/19 03:17:47;;;;;;;7.50;2.80;;;;;;;2.89;100.00;95817.16;5005789;28;20476;-79
2022/04/19 03:20:16;;;;;;;6.93;2.83;;;;;;;2.83;100.00;95814.09;5005264;28;20471;-79
2022/04/19 03:28:19;;;;;;;9.73;4.00;;;;;;;2.91;100.00;95813.47;5014349;28;20455;-79
2022/04/19 03:30:46;;;;;;;7.10;3.40;;;;;;;2.93;100.00;95803.81;4999355;28;20551;-79
2022/04/19 03:33:16;;;;;;;6.93;3.50;;;;;;;2.97;100.00;95812.19;5011927;28;20479;-79
2022/04/19 03:35:42;;;;;;;6.70;3.23;;;;;;;2.79;100.00;95801.50;5013646;28;20860;-79
2022/04/19 03:38:08;;;;;;;10.40;3.30;;;;;;;2.89;100.00;95805.00;4996897;28;20479;-79
2022/04/19 03:40:35;;;;;;;7.60;2.90;;;;;;;2.92;100.00;95811.69;5002687;28;20048;-79
2022/04/19 03:43:05;;;;;;;7.80;3.03;;;;;;;2.89;100.00;95806.78;5002573;28;21162;-78
2022/04/19 03:45:31;;;;;;;5.87;2.90;;;;;;;2.76;100.00;95823.31;5006702;28;20460;-79
2022/04/19 03:47:57;;;;;;;5.87;2.87;;;;;;;2.67;100.00;95820.63;5004007;28;20479;-79
2022/04/19 03:50:25;;;;;;;5.77;2.83;;;;;;;2.59;100.00;95822.06;5013312;28;20467;-78
2022/04/19 03:52:52;;;;;;;6.90;2.30;;;;;;;2.69;100.00;95810.97;5022996;28;21316;-79
2022/04/19 03:55:20;;;;;;;9.00;3.17;;;;;;;2.59;100.00;95811.69;5016258;28;20557;-78
2022/04/19 03:57:46;;;;;;;6.20;3.33;;;;;;;2.57;100.00;95803.16;5020721;28;20468;-80
2022/04/19 04:00:13;;;;;;;7.07;3.07;;;;;;;2.53;100.00;95799.16;5024468;28;20462;-79
2022/04/19 04:02:45;;;;;;;11.25;3.60;;;;;;;2.55;100.00;95805.09;5010830;28;20463;-78
2022/04/19 04:05:24;;;;;;;14.93;6.43;;;;;;;2.66;100.00;95811.19;5010302;28;20036;-80
2022/04/19 04:07:51;;;;;;;13.77;5.33;;;;;;;2.76;100.00;95806.94;5010078;28;20518;-78
2022/04/19 04:10:20;;;;;;;9.83;4.90;;;;;;;2.77;100.00;95809.38;5027016;28;20451;-79
2022/04/19 04:12:46;;;;;;;12.03;5.23;;;;;;;2.80;100.00;95811.75;5007658;28;20877;-79
2022/04/19 04:15:12;;;;;;;13.97;6.00;;;;;;;2.83;100.00;95818.47;5021819;28;20463;-79
2022/04/19 04:17:40;;;;;;;10.87;5.13;;;;;;;2.75;100.00;95808.69;5032671;28;20029;-78
2022/04/19 04:20:07;;;;;;;7.97;3.97;;;;;;;2.74;100.00;95811.41;5022690;28;20462;-78
2022/04/19 04:22:32;;;;;;;7.70;3.77;;;;;;;2.62;100.00;95815.00;5016331;28;20518;-78
2022/04/19 04:24:59;;;;;;;8.53;3.47;;;;;;;2.72;100.00;95810.72;5020100;28;21932;-79
2022/04/19 04:27:26;;;;;;;8.00;3.20;;;;;;;2.68;100.00;95809.28;5008823;28;20450;-78
2022/04/19 04:29:51;;;;;;;8.57;3.90;;;;;;;2.69;100.00;95808.34;5006948;28;20455;-79
2022/04/19 04:32:17;;;;;;;6.77;3.23;;;;;;;2.58;100.00;95814.38;5020083;28;20060;-79
2022/04/19 04:34:43;;;;;;;10.90;3.37;;;;;;;2.66;100.00;95818.97;5006106;28;20033;-79
2022/04/19 04:37:10;;;;;;;6.83;3.60;;;;;;;2.74;100.00;95814.81;5008771;28;20028;-79
2022/04/19 04:39:44;;;;;;;8.40;4.20;;;;;;;2.79;100.00;95811.88;5022885;28;20569;-79
2022/04/19 04:42:26;;;;;;;6.37;3.63;;;;;;;2.87;100.00;95806.88;5023808;28;20484;-79
2022/04/19 04:44:55;;;;;;;26.13;14.73;;;;;;;3.01;100.00;95809.19;5004758;28;20708;-78
2022/04/19 04:50:08;;;;;;;17.67;10.07;;;;;;;3.06;100.00;95814.84;5029158;28;20036;-79
2022/04/19 04:52:34;;;;;;;7.67;3.87;;;;;;;3.07;100.00;95815.69;5011728;28;20482;-79
2022/04/19 04:55:00;;;;;;;7.07;3.37;;;;;;;2.90;100.00;95811.84;5021753;28;20459;-79
2022/04/19 04:57:31;;;;;;;12.00;6.93;;;;;;;2.99;100.00;95813.72;5010594;28;20060;-79
2022/04/19 04:59:57;;;;;;;16.30;8.80;;;;;;;3.25;100.00;95815.97;5007777;28;20479;-79
2022/04/19 05:02:25;;;;;;;13.77;6.77;;;;;;;3.44;100.00;95812.69;5005400;28;20590;-79
2022/04/19 05:04:52;;;;;;;10.93;5.27;;;;;;;3.50;100.00;95813.00;5008111;28;20474;-79
2022/04/19 05:07:18;;;;;;;10.83;5.50;;;;;;;3.66;100.00;95812.59;5004495;28;20472;-79
2022/04/19 05:09:50;;;;;;;11.73;7.20;;;;;;;3.79;100.00;95817.59;5005566;28;20818;-79
2022/04/19 05:12:16;;;;;;;10.53;5.27;;;;;;;3.98;98.81;95817.69;5027299;28;20486;-79
2022/04/19 05:14:42;;;;;;;12.60;6.70;;;;;;;4.17;96.92;95813.53;5024230;28;20444;-79
2022/04/19 05:17:08;;;;;;;16.77;8.20;;;;;;;4.19;98.93;95815.06;5035462;28;20496;-79
2022/04/19 05:19:40;;;;;;;12.00;6.23;;;;;;;4.24;98.75;95810.28;5019269;28;20563;-79
2022/04/19 05:22:06;;;;;;;12.23;5.80;;;;;;;4.27;100.00;95811.00;5036543;28;20466;-79
2022/04/19 05:24:32;;;;;;;9.70;5.10;;;;;;;4.10;100.00;95820.22;5027207;28;20471;-79
2022/04/19 05:26:58;;;;;;;6.67;3.30;;;;;;;3.42;100.00;95822.38;5034474;28;20459;-79
2022/04/19 05:29:24;;;;;;;6.83;3.07;;;;;;;3.47;100.00;95828.03;5035232;28;20501;-79
2022/04/19 05:31:53;;;;;;;9.43;3.23;;;;;;;3.81;100.00;95818.28;5015241;28;20542;-79
2022/04/19 05:34:19;;;;;;;6.97;3.80;;;;;;;4.13;97.73;95819.97;5016274;28;20492;-80
2022/04/19 05:36:44;;;;;;;6.97;3.93;;;;;;;4.44;95.59;95816.38;5018928;28;20035;-80
2022/04/19 05:39:12;;;;;;;10.33;4.03;;;;;;;4.58;93.84;95819.59;5020189;28;20107;-79
2022/04/19 05:41:41;;;;;;;7.97;3.83;;;;;;;5.05;90.67;95820.66;5037572;28;20915;-79
2022/04/19 05:44:08;;;;;;;8.03;4.13;;;;;;;4.94;91.01;95824.19;5032411;28;21298;-78
2022/04/19 05:46:36;;;;;;;7.10;3.30;;;;;;;5.04;90.86;95828.63;5015613;28;20809;-78
2022/04/19 05:49:05;;;;;;;7.07;2.93;;;;;;;5.65;86.05;95820.53;5011730;28;20548;-79
2022/04/19 05:51:34;;;;;;;11.60;7.63;;;;;;;5.82;84.53;95827.63;5013560;28;20498;-78
2022/04/19 05:54:02;;;;;;;8.93;4.07;;;;;;;6.16;81.94;95814.13;5018090;28;20495;-79
2022/04/19 05:56:30;;;;;;;5.77;2.80;;;;;;;6.50;78.67;95821.41;5012564;28;20849;-79
2022/04/19 05:58:56;;;;;;;7.47;2.90;;;;;;;6.76;nan;95819.78;5040875;28;20463;-80
2022/04/19 06:01:22;;;;;;;7.90;2.70;;;;;;;7.09;73.05;95818.34;5016603;28;20479;-79
2022/04/19 06:06:37;;;;;;;5.93;2.67;;;;;;;7.63;69.30;95815.75;5042415;28;20028;-79
2022/04/19 06:09:03;;;;;;;8.17;2.67;;;;;;;7.94;66.85;95812.69;5019757;28;20028;-80
2022/04/19 06:11:29;;;;;;;6.33;2.53;;;;;;;8.04;65.85;95811.59;5034205;28;20020;-79
2022/04/19 06:13:55;;;;;;;9.00;2.73;;;;;;;8.31;64.99;95799.31;5028006;28;20028;-80
2022/04/19 06:16:22;;;;;;;5.77;2.47;;;;;;;8.64;61.08;95799.53;5015823;28;20586;-80
2022/04/19 06:18:51;;;;;;;6.00;3.17;;;;;;;9.07;59.21;95806.38;5034164;28;20033;-80
2022/04/19 06:21:21;;;;;;;7.20;2.33;;;;;;;9.37;56.05;95797.09;5017068;28;20121;-79
2022/04/19 06:23:47;;;;;;;7.83;2.57;;;;;;;9.56;55.63;95801.22;5020516;28;20032;-80
2022/04/19 06:26:14;;;;;;;6.43;3.40;;;;;;;9.86;55.15;95791.84;5016959;28;20075;-79
2022/04/19 06:28:40;;;;;;;6.23;3.00;;;;;;;10.39;53.84;95797.53;5018147;28;20035;-79
2022/04/19 06:31:25;;;;;;;6.30;3.37;;;;;;;10.93;50.85;95783.66;5052786;28;20047;-80
2022/04/19 06:34:04;;;;;;;4.70;2.20;;;;;;;11.70;49.25;95784.50;5020980;28;20036;-80
2022/04/19 06:36:48;;;;;;;9.15;3.85;;;;;;;11.45;57.26;95790.94;5037646;28;20401;-80
2022/04/19 06:39:14;;;;;;;8.13;4.40;;;;;;;11.04;58.23;95791.19;5033784;28;20033;-80
2022/04/19 06:41:42;;;;;;;6.93;3.67;;;;;;;11.25;58.74;95795.84;5023203;28;20036;-80
2022/04/19 06:44:08;;;;;;;6.80;4.10;;;;;;;10.95;59.51;95795.66;5020262;28;20418;-81
2022/04/19 06:46:38;;;;;;;6.53;3.43;;;;;;;11.60;56.78;95793.63;5020569;28;20093;-81
2022/04/19 06:49:06;;;;;;;5.23;2.80;;;;;;;11.95;53.77;95795.66;5021376;28;20017;-80
2022/04/19 06:51:38;;;;;;;5.17;2.90;;;;;;;12.23;50.49;95787.97;5026994;28;20049;-81
2022/04/19 06:54:11;;;;;;;5.70;2.63;;;;;;;12.39;49.96;95779.09;5039782;28;20044;-80
2022/04/19 06:56:45;;;;;;;7.70;3.07;;;;;;;12.88;49.56;95780.34;5023495;28;20033;-80
2022/04/19 06:59:13;;;;;;;6.37;3.40;;;;;;;13.72;46.90;95782.47;5012422;28;20549;-80
2022/04/19 07:01:41;;;;;;;12.93;5.27;;;;;;;13.49;46.35;95780.84;5022510;28;20465;-80
2022/04/19 07:04:35;;;;;;;7.87;3.57;;;;;;;13.51;45.21;95785.91;4982539;28;20050;-80
2022/04/19 07:07:07;;;;;;;7.37;2.67;;;;;;;14.11;41.05;95777.50;5016230;28;20059;-80
2022/04/19 07:09:35;;;;;;;5.60;3.23;;;;;;;14.64;40.94;95782.34;5033483;28;20394;-81
2022/04/19 07:12:01;;;;;;;6.87;2.90;;;;;;;14.81;40.18;95781.00;5035982;28;20021;-81
2022/04/19 07:14:33;;;;;;;5.53;2.80;;;;;;;15.64;39.01;95782.69;5013250;28;20025;-81
2022/04/19 07:16:59;;;;;;;6.57;3.10;;;;;;;15.83;37.71;95770.50;5048760;28;20094;-80
2022/04/19 07:26:37;;;;;;;4.43;2.47;;;;;;;16.54;37.46;95761.88;5047471;28;20037;-80
2022/04/19 07:27:49;;;;;;;6.17;2.90;;;;;;;16.79;36.89;95762.03;5036656;28;20652;-81
2022/04/19 07:30:20;;;;;;;6.27;3.00;;;;;;;16.99;36.04;95765.44;5041476;28;20123;-80
2022/04/19 07:32:46;;;;;;;4.93;2.70;;;;;;;16.43;36.54;95755.34;5025632;28;20602;-81
2022/04/19 07:35:25;;;;;;;6.07;3.10;;;;;;;17.24;36.36;95764.72;5021457;28;20029;-82
2022/04/19 07:37:51;;;;;;;6.23;2.90;;;;;;;17.52;35.32;95764.34;5021965;28;20025;-81
2022/04/19 07:40:19;;;;;;;5.27;3.10;;;;;;;17.19;35.35;95766.16;5006652;28;20025;-81
2022/04/19 07:42:48;;;;;;;6.03;3.23;;;;;;;18.16;34.13;95757.16;5004853;28;20075;-80
2022/04/19 07:45:15;;;;;;;5.00;2.72;;;;;;;18.37;33.80;95762.06;5022232;28;20479;-80
2022/04/19 07:47:41;;;;;;;6.95;3.95;;;;;;;18.03;35.11;95769.53;5022884;28;20037;-80
2022/04/19 07:50:07;;;;;;;6.43;3.42;;;;;;;17.90;35.43;95761.66;5019866;28;20107;-80
2022/04/19 07:52:36;;;;;;;7.57;3.65;;;;;;;17.45;35.74;95772.38;5021826;28;20096;-81
2022/04/19 07:55:02;;;;;;;6.20;3.30;;;;;;;18.43;34.71;95757.72;5024213;28;20111;-80
2022/04/19 07:57:31;;;;;;;6.70;4.10;;;;;;;18.48;33.70;95768.53;5020228;28;20459;-81
2022/04/19 07:59:59;;;;;;;11.80;6.65;;;;;;;18.29;33.57;95765.84;5027551;28;20087;-81
2022/04/19 08:02:30;;;;;;;9.68;5.82;;;;;;;16.96;35.70;95771.16;5038662;28;20060;-81
2022/04/19 08:04:57;;;;;;;6.78;4.25;;;;;;;18.75;33.00;95763.78;5036514;28;20037;-81
2022/04/19 08:07:23;;;;;;;10.65;4.70;;;;;;;17.85;33.24;95764.16;5022591;28;20047;-83
2022/04/19 08:09:49;;;;;;;7.65;4.53;;;;;;;18.61;33.30;95763.88;5038804;28;20025;-80
2022/04/19 08:12:15;;;;;;;8.63;4.90;;;;;;;18.14;32.12;95763.50;5038089;28;20035;-81
2022/04/19 08:14:50;;;;;;;13.68;5.00;;;;;;;17.75;34.34;95761.13;5008230;28;20033;-81
2022/04/19 08:17:16;;;;;;;7.72;5.05;;;;;;;18.72;32.85;95753.56;5024242;28;20099;-83
2022/04/19 08:19:42;;;;;;;8.50;5.03;;;;;;;19.42;32.43;95753.91;5028798;28;20437;-81
2022/04/19 08:22:18;;;;;;;;;;;;;;;;;;;;;
2022/04/19 08:24:55;;;;;;;7.38;4.45;;;;;;;18.88;32.56;95749.47;5026292;28;21092;-81
2022/04/19 08:27:21;;;;;;;6.93;4.55;;;;;;;19.86;30.77;95753.72;5015468;28;20021;-83
2022/04/19 08:29:48;;;;;;;7.82;4.88;;;;;;;19.68;30.60;95751.94;5016139;28;20029;-80
2022/04/19 08:32:15;;;;;;;7.63;4.72;;;;;;;19.60;30.46;95754.91;5025917;28;20032;-82
2022/04/19 08:34:42;;;;;;;7.80;4.80;;;;;;;19.87;29.59;95753.47;5011319;28;20076;-82
2022/04/19 08:37:09;;;;;;;8.65;4.78;;;;;;;20.20;29.32;95738.78;5020365;28;20680;-82
2022/04/19 08:39:36;;;;;;;8.50;4.47;;;;;;;19.51;30.32;95749.88;5024576;28;20116;-81
2022/04/19 08:42:16;;;;;;;9.93;5.60;;;;;;;19.32;30.53;95748.31;5017020;28;20044;-81
2022/04/19 08:44:49;;;;;;;8.80;5.53;;;;;;;19.63;29.36;95752.63;5007253;28;20804;-82
2022/04/19 08:47:15;;;;;;;8.90;5.38;;;;;;;19.67;30.78;95744.97;5021047;28;20064;-82
2022/04/19 08:49:42;;;;;;;7.47;4.93;;;;;;;21.20;29.08;95732.38;5033709;28;20028;-77
2022/04/19 08:52:11;;;;;;;9.82;5.32;;;;;;;20.93;28.36;95738.28;5015692;28;20033;-81
2022/04/19 08:57:42;;;;;;;7.43;4.90;;;;;;;20.06;28.25;95743.53;5020320;28;20089;-82
2022/04/19 09:00:15;;;;;;;8.48;5.32;;;;;;;21.66;27.73;95735.91;5010092;28;20040;-83
2022/04/19 09:02:41;;;;;;;7.43;5.28;;;;;;;20.97;27.59;95738.63;5014398;28;20044;-83
2022/04/19 09:05:20;;;;;;;6.97;4.78;;;;;;;21.10;26.82;95729.53;5002133;28;20029;-83
2022/04/19 09:07:47;;;;;;;9.02;5.75;;;;;;;20.75;27.52;95730.41;5019694;28;20059;-84
2022/04/19 09:10:24;;;;;;;13.10;5.25;;;;;;;20.99;27.89;95728.47;5014127;28;20064;-83
2022/04/19 09:13:01;;;;;;;10.75;5.68;;;;;;;20.01;29.75;95736.22;5003892;28;20094;-83
2022/04/19 09:15:32;;;;;;;8.82;5.45;;;;;;;20.52;28.07;95725.09;5022727;28;20037;-82
2022/04/19 09:17:59;;;;;;;8.15;5.45;;;;;;;21.23;27.44;95723.06;5006570;28;20037;-83
2022/04/19 09:20:25;;;;;;;8.20;5.10;;;;;;;21.61;27.42;95722.47;5005032;28;20040;-85
2022/04/19 09:23:06;;;;;;;7.85;4.90;;;;;;;21.78;26.73;95720.63;5005610;28;20045;-85
2022/04/19 09:25:40;;;;;;;8.20;5.22;;;;;;;22.74;25.73;95712.44;5031435;28;20441;-81
2022/04/19 09:28:17;;;;;;;7.57;4.82;;;;;;;21.84;26.15;95716.16;5016925;28;20128;-83
2022/04/19 09:30:45;;;;;;;6.55;4.40;;;;;;;21.76;25.98;95712.00;5016522;28;20401;-82
2022/04/19 09:33:12;;;;;;;7.00;4.68;;;;;;;20.84;26.88;95720.19;5041197;28;20029;-85
2022/04/19 09:35:40;;;;;;;7.60;4.80;;;;;;;21.09;25.61;95714.50;5016324;28;20101;-83
2022/04/19 09:38:08;;;;;;;9.82;5.03;;;;;;;21.78;26.17;95701.06;5026873;28;20073;-83
2022/04/19 09:40:38;;;;;;;8.48;5.13;;;;;;;20.57;27.08;95701.19;5015084;28;20032;-86
2022/04/19 09:43:24;;;;;;;6.90;4.55;;;;;;;22.78;24.65;95697.47;5008536;28;20516;-85
2022/04/19 09:46:10;;;;;;;6.88;4.68;;;;;;;22.32;25.27;95691.47;5022703;28;20067;-83
2022/04/19 09:48:42;;;;;;;7.22;5.13;;;;;;;22.99;24.73;95687.00;5007412;28;20065;-83
2022/04/19 09:51:10;;;;;;;10.73;5.87;;;;;;;22.95;24.00;95686.69;5016945;28;20052;-82
2022/04/19 09:53:42;;;;;;;9.48;5.32;;;;;;;22.23;25.26;95684.13;5033040;28;20949;-84
2022/04/19 09:56:12;;;;;;;11.60;5.65;;;;;;;21.68;25.39;95691.00;5005627;28;21351;-82
2022/04/19 09:58:38;;;;;;;15.60;6.80;;;;;;;21.65;26.53;95697.66;5013607;28;20091;-83
2022/04/19 10:08:10;;;;;;;8.20;5.35;;;;;;;22.92;24.39;95691.72;5018180;28;20033;-86
2022/04/19 10:09:25;;;;;;;7.00;4.80;;;;;;;23.70;23.92;95685.06;5025033;28;20091;-82
2022/04/19 10:11:51;;;;;;;7.55;4.97;;;;;;;23.36;23.09;95686.31;5010656;28;20033;-83
2022/04/19 10:14:21;;;;;;;6.78;4.47;;;;;;;23.98;23.09;95680.47;5027683;28;20056;-82
2022/04/19 10:17:01;;;;;;;7.75;4.80;;;;;;;23.15;24.02;95683.44;5019009;28;20429;-82
2022/04/19 10:19:31;;;;;;;5.33;3.60;;;;;;;22.17;24.84;95687.78;4998784;28;20040;-81
2022/04/19 10:22:06;;;;;;;6.13;3.90;;;;;;;22.40;24.51;95686.75;5014291;28;20823;-81
2022/04/19 10:24:46;;;;;;;8.88;6.45;;;;;;;21.38;25.05;95683.25;5016064;28;20048;-83
2022/04/19 10:27:12;;;;;;;5.00;3.10;;;;;;;22.93;24.33;95680.75;5001767;28;20036;-82
2022/04/19 10:29:38;;;;;;;6.18;3.85;;;;;;;23.60;22.70;95679.56;5005330;28;20035;-82
2022/04/19 10:32:07;;;;;;;5.82;3.40;;;;;;;24.10;22.79;95672.22;5002291;28;20029;-83
2022/04/19 10:34:36;;;;;;;7.47;3.88;;;;;;;23.71;22.70;95678.66;5025694;28;20035;-82
2022/04/19 10:37:20;;;;;;;5.70;3.42;;;;;;;23.42;23.26;95672.72;4996160;28;20136;-82
2022/04/19 10:39:50;;;;;;;8.93;4.25;;;;;;;22.32;24.70;95675.41;5010402;28;20423;-82
2022/04/19 10:42:28;;;;;;;7.78;5.30;;;;;;;22.11;25.29;95660.09;4994103;28;20130;-84
2022/04/19 10:44:55;;;;;;;8.32;4.20;;;;;;;22.36;25.46;95654.28;4993566;28;21846;-81
2022/04/19 10:47:23;;;;;;;7.45;5.45;;;;;;;22.54;25.13;95667.41;4994825;28;20029;-84
2022/04/19 10:49:58;;;;;;;6.68;3.55;;;;;;;21.25;25.42;95667.47;4992121;28;20368;-83
2022/04/19 10:52:39;;;;;;;8.50;5.43;;;;;;;23.25;24.36;95655.91;5000924;28;20031;-82
2022/04/19 10:55:23;;;;;;;13.13;8.18;;;;;;;22.52;24.25;95656.13;5017649;28;20032;-83
2022/04/19 10:58:23;;;;;;;8.02;4.72;;;;;;;22.64;24.57;95655.22;5009499;28;20032;-83
2022/04/19 11:00:54;;;;;;;7.25;3.63;;;;;;;22.20;25.19;95655.13;5009694;28;20069;-83
2022/04/19 11:03:29;;;;;;;8.57;5.55;;;;;;;23.15;24.73;95661.19;5011150;28;20065;-83
2022/04/19 11:05:57;;;;;;;14.57;7.80;;;;;;;22.32;25.70;95659.34;5010450;28;20137;-81
2022/04/19 11:08:26;;;;;;;7.30;4.35;;;;;;;22.33;25.33;95655.63;5025933;28;20115;-81
2022/04/19 11:10:56;;;;;;;5.85;3.90;;;;;;;23.17;24.10;95653.66;5027739;28;20069;-83
2022/04/19 11:13:22;;;;;;;6.88;4.57;;;;;;;23.20;24.67;95647.78;5019752;28;20053;-82
2022/04/19 11:16:07;;;;;;;6.47;3.78;;;;;;;22.83;25.26;95643.09;5019759;28;20120;-83
2022/04/19 11:18:37;;;;;;;8.05;5.57;;;;;;;23.93;23.27;95640.13;5009917;28;20025;-83
2022/04/19 11:21:07;;;;;;;10.70;5.63;;;;;;;24.48;22.98;95635.38;5005750;28;20039;-83
2022/04/19 11:23:52;;;;;;;7.03;4.68;;;;;;;23.89;24.71;95636.34;5008215;28;20037;-84
2022/04/19 11:26:30;;;;;;;17.38;5.00;;;;;;;22.32;25.22;95635.22;5020310;28;20029;-82
2022/04/19 11:32:58;;;;;;;7.20;5.22;;;;;;;23.25;24.01;95629.88;5031042;28;20177;-82
2022/04/19 11:35:32;;;;;;;6.97;3.85;;;;;;;22.99;24.38;95625.34;5020558;28;20064;-82
2022/04/19 11:38:03;;;;;;;5.72;3.67;;;;;;;23.99;25.21;95628.38;5023128;28;20039;-82
2022/04/19 11:48:50;;;;;;;8.10;4.30;;;;;;;23.36;23.34;95620.06;5042116;28;20033;-83
2022/04/19 11:51:20;;;;;;;6.13;3.65;;;;;;;22.58;24.68;95619.50;5025656;28;20044;-82
2022/04/19 11:53:47;;;;;;;5.07;3.40;;;;;;;22.72;25.79;95611.88;5019957;28;20101;-84
2022/04/19 11:56:42;;;;;;;7.63;4.10;;;;;;;22.57;25.04;95612.50;5023135;28;20123;-82
2022/04/19 11:59:33;;;;;;;;;;;;;;;;;;;;;
2022/04/19 12:02:23;;;;;;;5.10;3.13;;;;;;;22.63;25.16;95605.31;5033242;28;20041;-83
2022/04/19 12:05:02;;;;;;;5.47;3.42;;;;;;;23.05;23.95;95609.03;5017607;28;20025;-83
2022/04/19 12:07:48;;;;;;;6.63;3.95;;;;;;;22.22;25.58;95613.66;5019065;28;20039;-84
2022/04/19 12:10:19;;;;;;;6.05;3.83;;;;;;;22.29;25.96;95600.91;5027755;28;20036;-85
2022/04/19 12:12:57;;;;;;;5.60;3.50;;;;;;;23.24;23.30;95601.44;5028073;28;20148;-83
2022/04/19 12:15:42;;;;;;;6.38;3.30;;;;;;;23.88;23.87;95611.38;5024914;28;20060;-82
2022/04/19 12:18:32;;;;;;;4.90;3.50;;;;;;;22.91;24.06;95605.13;5024447;28;20032;-85
2022/04/19 12:21:03;;;;;;;4.25;2.63;;;;;;;20.99;26.26;95612.72;5022126;28;20051;-81
2022/04/19 12:23:30;;;;;;;4.80;3.08;;;;;;;21.82;25.71;95609.31;5020207;28;20037;-82
2022/04/19 12:25:58;;;;;;;5.15;3.08;;;;;;;22.18;25.68;95614.41;5021447;28;20048;-84
2022/04/19 12:28:38;;;;;;;7.90;3.38;;;;;;;22.39;24.62;95594.06;5019070;28;20025;-82
2022/04/19 12:31:04;;;;;;;9.10;3.65;;;;;;;22.62;24.87;95598.34;5032255;28;20197;-82